Nearby METAR Reports

 

KHOT - Hot Springs, Arkansas, USA
Distance from station: W 8mi, 14km
Updated: 02/08/2023 11:55am
Rain, Mist, Overcast
Rain, Mist, Overcast
 Wind from SE
Wind: SE 5 mph , 7 km/h
Temperature: 50°F , 10°C
Wind Chill: 48°F , 9°C
Dew Point: 48°F , 9°C
Humidity: 94%
Barometer: 29.98 inHg , 1015.2 hPa
Summary: Rain, Mist
Clouds: Overcast
Visibility: 2 miles , 3 km
Cloud details: Mostly cloudy 500 ft
Overcast 1300 ft
2023/02/08 17:55 KHOT 081755Z AUTO 13004KT 2SM RA BR BKN005 OVC013 10/09 A2998 RMK AO2 LTG DSNT S-NW P0001 T01000094
KMWT - Mount Ida, Arkansas, USA
Distance from station: W 36mi, 58km
Updated: 02/08/2023 11:53am
Heavy rain, Mist, Overcast
Heavy rain, Mist, Overcast
 Wind from E
Wind: E 5 mph , 7 km/h
Temperature: 52°F , 11°C
Dew Point: 48°F , 9°C
Humidity: 88%
Barometer: 29.95 inHg , 1014.2 hPa
Summary: Heavy rain, Mist
Clouds: Overcast
Visibility: 1 1/2 miles , 2.4 km
Cloud details: Mostly cloudy 600 ft
Mostly cloudy 1300 ft
Overcast 2400 ft
2023/02/08 17:53 KMWT 081753Z AUTO 08004KT 1 1/2SM +RA BR BKN006 BKN013 OVC024 11/09 A2995 RMK AO2 SLP142 P0023 60183 T01060094 10106 20089 56013
 
KLIT - Little Rock, Arkansas, USA
Distance from station: ENE 45mi, 73km
Updated: 02/08/2023 11:53am
Light rain, Overcast
Light rain, Overcast
 Wind from E
Wind: E 13 mph , 20 km/h
Temperature: 52°F , 11°C
Dew Point: 48°F , 9°C
Humidity: 88%
Barometer: 30.03 inHg , 1016.9 hPa
Summary: Light rain
Clouds: Overcast
Visibility: 7 miles , 11 km
Cloud details: Mostly cloudy 600 ft
Overcast 1500 ft
2023/02/08 17:53 KLIT 081753Z 08011KT 7SM -RA BKN006 OVC015 11/09 A3003 RMK AO2 RAB19 SLP172 P0001 60092 T01060089 10106 20094 58019
KLRF - Little Rock Afb, Arkansas, USA
Distance from station: NE 56mi, 89km
Updated: 02/08/2023 11:40am
Light rain, Overcast
Light rain, Overcast
 Wind from ENE
Wind: ENE 12 mph , 19 km/h
Temperature: 50°F , 10°C
Wind Chill: 45°F , 7°C
Dew Point: 50°F , 10°C
Humidity: 100%
Barometer: 30.01 inHg , 1016.3 hPa
Summary: Light rain
Clouds: Overcast
Visibility: 10 miles , 16 km
Cloud details: Overcast 600 ft
2023/02/08 17:40 KLRF 081740Z AUTO 07010KT 10SM -RA OVC006 10/10 A3001 RMK AO2 RAE1655RAB35 SLP166